sensor_id;sensor_type;location;lat;lon;timestamp;pressure;altitude;pressure_sealevel;temperature;humidity
42945;BME280;28584;42.636;23.294;2023-04-22T00:00:26;160211.72;;;6.23;100.00
42945;BME280;28584;42.636;23.294;2023-04-22T00:02:52;160199.72;;;6.18;100.00
42945;BME280;28584;42.636;23.294;2023-04-22T00:05:20;160199.72;;;6.18;100.00
42945;BME280;28584;42.636;23.294;2023-04-22T00:07:46;160187.72;;;6.14;100.00
42945;BME280;28584;42.636;23.294;2023-04-22T00:10:11;160167.75;;;6.06;100.00
42945;BME280;28584;42.636;23.294;2023-04-22T00:12:37;160158.47;;;6.03;100.00
42945;BME280;28584;42.636;23.294;2023-04-22T00:15:03;160126.47;;;5.91;100.00
42945;BME280;28584;42.636;23.294;2023-04-22T00:17:29;160122.50;;;5.89;100.00
42945;BME280;28584;42.636;23.294;2023-04-22T00:19:54;160107.84;;;5.84;100.00
42945;BME280;28584;42.636;23.294;2023-04-22T00:22:20;160119.84;;;5.88;100.00
42945;BME280;28584;42.636;23.294;2023-04-22T00:24:45;160145.13;;;5.98;100.00
42945;BME280;28584;42.636;23.294;2023-04-22T00:27:11;160153.09;;;6.01;100.00
42945;BME280;28584;42.636;23.294;2023-04-22T00:29:36;160133.19;;;5.93;100.00
42945;BME280;28584;42.636;23.294;2023-04-22T00:32:02;160122.50;;;5.89;100.00
42945;BME280;28584;42.636;23.294;2023-04-22T00:34:27;160129.19;;;5.92;100.00
42945;BME280;28584;42.636;23.294;2023-04-22T00:36:54;160113.19;;;5.86;100.00
42945;BME280;28584;42.636;23.294;2023-04-22T00:39:19;160098.50;;;5.80;100.00
42945;BME280;28584;42.636;23.294;2023-04-22T00:41:45;160094.50;;;5.78;100.00
42945;BME280;28584;42.636;23.294;2023-04-22T00:44:11;160077.22;;;5.72;100.00
42945;BME280;28584;42.636;23.294;2023-04-22T00:46:38;160069.25;;;5.69;100.00
42945;BME280;28584;42.636;23.294;2023-04-22T00:49:04;160045.25;;;5.60;100.00
42945;BME280;28584;42.636;23.294;2023-04-22T00:51:30;160126.47;;;5.91;100.00
42945;BME280;28584;42.636;23.294;2023-04-22T00:53:56;160201.03;;;6.19;100.00
42945;BME280;28584;42.636;23.294;2023-04-22T00:56:24;160249.00;;;6.37;100.00
42945;BME280;28584;42.636;23.294;2023-04-22T00:58:51;160235.66;;;6.32;100.00
42945;BME280;28584;42.636;23.294;2023-04-22T01:01:17;160193.09;;;6.16;100.00
42945;BME280;28584;42.636;23.294;2023-04-22T01:03:43;160195.72;;;6.17;100.00
42945;BME280;28584;42.636;23.294;2023-04-22T01:06:10;160169.09;;;6.07;100.00
42945;BME280;28584;42.636;23.294;2023-04-22T01:08:35;160145.13;;;5.98;100.00
42945;BME280;28584;42.636;23.294;2023-04-22T01:11:01;160123.84;;;5.90;100.00
42945;BME280;28584;42.636;23.294;2023-04-22T01:13:27;160095.88;;;5.79;100.00
42945;BME280;28584;42.636;23.294;2023-04-22T01:15:52;160054.59;;;5.63;100.00
42945;BME280;28584;42.636;23.294;2023-04-22T01:18:18;160017.34;;;5.49;100.00
42945;BME280;28584;42.636;23.294;2023-04-22T01:20:43;159956.13;;;5.26;100.00
42945;BME280;28584;42.636;23.294;2023-04-22T01:23:18;159952.13;;;5.25;100.00
42945;BME280;28584;42.636;23.294;2023-04-22T01:25:44;159966.78;;;5.30;100.00
42945;BME280;28584;42.636;23.294;2023-04-22T01:28:10;159982.75;;;5.36;100.00
42945;BME280;28584;42.636;23.294;2023-04-22T01:30:36;159970.75;;;5.32;100.00
42945;BME280;28584;42.636;23.294;2023-04-22T01:33:02;159933.53;;;5.18;100.00
42945;BME280;28584;42.636;23.294;2023-04-22T01:35:28;159908.25;;;5.08;100.00
42945;BME280;28584;42.636;23.294;2023-04-22T01:37:54;159849.72;;;4.86;100.00
42945;BME280;28584;42.636;23.294;2023-04-22T01:40:22;159825.81;;;4.77;100.00
42945;BME280;28584;42.636;23.294;2023-04-22T01:42:49;159803.19;;;4.69;100.00
42945;BME280;28584;42.636;23.294;2023-04-22T01:45:14;159800.50;;;4.68;100.00
42945;BME280;28584;42.636;23.294;2023-04-22T01:47:41;159751.34;;;4.49;100.00
42945;BME280;28584;42.636;23.294;2023-04-22T01:50:07;159756.63;;;4.51;100.00
42945;BME280;28584;42.636;23.294;2023-04-22T01:52:33;159777.94;;;4.59;100.00
42945;BME280;28584;42.636;23.294;2023-04-22T01:54:58;159789.88;;;4.64;100.00
42945;BME280;28584;42.636;23.294;2023-04-22T01:57:25;159801.84;;;4.68;100.00
42945;BME280;28584;42.636;23.294;2023-04-22T01:59:50;159825.81;;;4.77;100.00
42945;BME280;28584;42.636;23.294;2023-04-22T02:02:16;159897.63;;;5.04;100.00
42945;BME280;28584;42.636;23.294;2023-04-22T02:04:41;160001.38;;;5.43;100.00
42945;BME280;28584;42.636;23.294;2023-04-22T02:07:06;160073.25;;;5.70;100.00
42945;BME280;28584;42.636;23.294;2023-04-22T02:09:32;160131.81;;;5.93;100.00
42945;BME280;28584;42.636;23.294;2023-04-22T02:11:57;160153.09;;;6.01;100.00
42945;BME280;28584;42.636;23.294;2023-04-22T02:14:23;160179.75;;;6.11;100.00
42945;BME280;28584;42.636;23.294;2023-04-22T02:16:48;160190.38;;;6.15;100.00
42945;BME280;28584;42.636;23.294;2023-04-22T02:19:13;160202.38;;;6.19;100.00
42945;BME280;28584;42.636;23.294;2023-04-22T02:21:39;160231.66;;;6.30;100.00
42945;BME280;28584;42.636;23.294;2023-04-22T02:24:04;160243.66;;;6.35;100.00
42945;BME280;28584;42.636;23.294;2023-04-22T02:26:30;160251.63;;;6.38;100.00
42945;BME280;28584;42.636;23.294;2023-04-22T02:28:55;160247.66;;;6.36;100.00
42945;BME280;28584;42.636;23.294;2023-04-22T02:31:21;160219.72;;;6.26;100.00
42945;BME280;28584;42.636;23.294;2023-04-22T02:33:46;160202.38;;;6.19;100.00
42945;BME280;28584;42.636;23.294;2023-04-22T02:36:12;160186.38;;;6.13;100.00
42945;BME280;28584;42.636;23.294;2023-04-22T02:38:37;160162.44;;;6.04;100.00
42945;BME280;28584;42.636;23.294;2023-04-22T02:41:03;160163.75;;;6.05;100.00
42945;BME280;28584;42.636;23.294;2023-04-22T02:43:28;160166.44;;;6.06;100.00
42945;BME280;28584;42.636;23.294;2023-04-22T02:45:53;160166.44;;;6.06;100.00
42945;BME280;28584;42.636;23.294;2023-04-22T02:48:19;160129.19;;;5.92;100.00
42945;BME280;28584;42.636;23.294;2023-04-22T02:50:44;160083.88;;;5.74;100.00
42945;BME280;28584;42.636;23.294;2023-04-22T02:53:09;160038.63;;;5.57;100.00
42945;BME280;28584;42.636;23.294;2023-04-22T02:55:35;160049.25;;;5.61;100.00
42945;BME280;28584;42.636;23.294;2023-04-22T02:58:00;160028.00;;;5.53;100.00
42945;BME280;28584;42.636;23.294;2023-04-22T03:00:26;159998.72;;;5.42;100.00
42945;BME280;28584;42.636;23.294;2023-04-22T03:02:51;160001.38;;;5.43;100.00
42945;BME280;28584;42.636;23.294;2023-04-22T03:05:17;160037.28;;;5.57;100.00
42945;BME280;28584;42.636;23.294;2023-04-22T03:07:43;160029.28;;;5.54;100.00
42945;BME280;28584;42.636;23.294;2023-04-22T03:10:08;160009.38;;;5.46;100.00
42945;BME280;28584;42.636;23.294;2023-04-22T03:12:34;159965.41;;;5.30;100.00
42945;BME280;28584;42.636;23.294;2023-04-22T03:14:59;159965.41;;;5.30;100.00
42945;BME280;28584;42.636;23.294;2023-04-22T03:17:24;159956.13;;;5.26;100.00
42945;BME280;28584;42.636;23.294;2023-04-22T03:19:50;159934.88;;;5.18;100.00
42945;BME280;28584;42.636;23.294;2023-04-22T03:22:15;159940.16;;;5.20;100.00
42945;BME280;28584;42.636;23.294;2023-04-22T03:24:41;159922.88;;;5.14;100.00
42945;BME280;28584;42.636;23.294;2023-04-22T03:27:06;159941.50;;;5.21;100.00
42945;BME280;28584;42.636;23.294;2023-04-22T03:29:31;159958.78;;;5.27;100.00
42945;BME280;28584;42.636;23.294;2023-04-22T03:31:57;159958.78;;;5.27;100.00
42945;BME280;28584;42.636;23.294;2023-04-22T03:34:22;159957.47;;;5.27;100.00
42945;BME280;28584;42.636;23.294;2023-04-22T03:36:48;159968.13;;;5.31;100.00
42945;BME280;28584;42.636;23.294;2023-04-22T03:39:13;160000.03;;;5.43;100.00
42945;BME280;28584;42.636;23.294;2023-04-22T03:41:38;160025.28;;;5.52;100.00
42945;BME280;28584;42.636;23.294;2023-04-22T03:44:04;160051.91;;;5.62;100.00
42945;BME280;28584;42.636;23.294;2023-04-22T03:46:29;160082.53;;;5.74;100.00
42945;BME280;28584;42.636;23.294;2023-04-22T03:48:54;160106.56;;;5.83;100.00
42945;BME280;28584;42.636;23.294;2023-04-22T03:51:20;160131.81;;;5.93;100.00
42945;BME280;28584;42.636;23.294;2023-04-22T03:53:45;160169.09;;;6.07;100.00
42945;BME280;28584;42.636;23.294;2023-04-22T03:56:10;160214.38;;;6.24;100.00
42945;BME280;28584;42.636;23.294;2023-04-22T03:58:36;160282.28;;;6.49;100.00
42945;BME280;28584;42.636;23.294;2023-04-22T04:01:01;160310.22;;;6.60;100.00
42945;BME280;28584;42.636;23.294;2023-04-22T04:03:26;160339.56;;;6.71;100.00
42945;BME280;28584;42.636;23.294;2023-04-22T04:05:53;160370.16;;;6.82;100.00
42945;BME280;28584;42.636;23.294;2023-04-22T04:08:18;160435.44;;;7.07;100.00
42945;BME280;28584;42.636;23.294;2023-04-22T04:10:44;160492.75;;;7.28;100.00
42945;BME280;28584;42.636;23.294;2023-04-22T04:13:09;160560.72;;;7.54;100.00
42945;BME280;28584;42.636;23.294;2023-04-22T04:15:35;160612.69;;;7.73;100.00
42945;BME280;28584;42.636;23.294;2023-04-22T04:18:01;160654.03;;;7.89;100.00
42945;BME280;28584;42.636;23.294;2023-04-22T04:20:27;160682.00;;;7.99;100.00
42945;BME280;28584;42.636;23.294;2023-04-22T04:22:52;160766.06;;;8.31;100.00
42945;BME280;28584;42.636;23.294;2023-04-22T04:25:18;160815.44;;;8.50;100.00
42945;BME280;28584;42.636;23.294;2023-04-22T04:27:45;160914.09;;;8.87;100.00
42945;BME280;28584;42.636;23.294;2023-04-22T04:30:11;160880.75;;;8.74;100.00
42945;BME280;28584;42.636;23.294;2023-04-22T04:32:37;160876.75;;;8.73;100.00
42945;BME280;28584;42.636;23.294;2023-04-22T04:35:03;160948.81;;;9.00;100.00
42945;BME280;28584;42.636;23.294;2023-04-22T04:37:28;160938.13;;;8.96;100.00
42945;BME280;28584;42.636;23.294;2023-04-22T04:39:54;160904.78;;;8.83;100.00
42945;BME280;28584;42.636;23.294;2023-04-22T04:42:19;160790.03;;;8.40;100.00
42945;BME280;28584;42.636;23.294;2023-04-22T04:44:45;160760.72;;;8.29;100.00
42945;BME280;28584;42.636;23.294;2023-04-22T04:47:12;160787.38;;;8.39;100.00
42945;BME280;28584;42.636;23.294;2023-04-22T04:49:39;160979.50;;;9.11;100.00
42945;BME280;28584;42.636;23.294;2023-04-22T04:52:05;161022.22;;;9.27;100.00
42945;BME280;28584;42.636;23.294;2023-04-22T04:54:34;160959.47;;;9.04;100.00
42945;BME280;28584;42.636;23.294;2023-04-22T04:56:59;160902.13;;;8.82;100.00
42945;BME280;28584;42.636;23.294;2023-04-22T04:59:26;161056.88;;;9.40;100.00
42945;BME280;28584;42.636;23.294;2023-04-22T05:01:51;161056.88;;;9.40;100.00
42945;BME280;28584;42.636;23.294;2023-04-22T05:04:17;161177.03;;;9.85;100.00
42945;BME280;28584;42.636;23.294;2023-04-22T05:06:42;161181.03;;;9.87;100.00
42945;BME280;28584;42.636;23.294;2023-04-22T05:09:07;161250.56;;;10.13;100.00
42945;BME280;28584;42.636;23.294;2023-04-22T05:11:33;161481.66;;;10.99;100.00
42945;BME280;28584;42.636;23.294;2023-04-22T05:13:59;161700.94;;;11.82;100.00
42945;BME280;28584;42.636;23.294;2023-04-22T05:16:24;161829.34;;;12.30;100.00
42945;BME280;28584;42.636;23.294;2023-04-22T05:18:50;161807.97;;;12.22;100.00
42945;BME280;28584;42.636;23.294;2023-04-22T05:21:15;161900.25;;;12.56;100.00
42945;BME280;28584;42.636;23.294;2023-04-22T05:23:41;161818.66;;;12.26;100.00
42945;BME280;28584;42.636;23.294;2023-04-22T05:26:06;161745.06;;;11.98;100.00
42945;BME280;28584;42.636;23.294;2023-04-22T05:28:31;161762.50;;;12.05;100.00
42945;BME280;28584;42.636;23.294;2023-04-22T05:30:57;161842.72;;;12.35;100.00
42945;BME280;28584;42.636;23.294;2023-04-22T05:33:22;161873.50;;;12.46;100.00
42945;BME280;28584;42.636;23.294;2023-04-22T05:35:47;161917.63;;;12.63;100.00
42945;BME280;28584;42.636;23.294;2023-04-22T05:38:13;161931.03;;;12.68;100.00
42945;BME280;28584;42.636;23.294;2023-04-22T05:40:38;161997.94;;;12.93;99.29
42945;BME280;28584;42.636;23.294;2023-04-22T05:43:04;161666.19;;;11.69;100.00
42945;BME280;28584;42.636;23.294;2023-04-22T05:45:30;161742.41;;;11.97;100.00
42945;BME280;28584;42.636;23.294;2023-04-22T05:47:55;161416.19;;;10.75;100.00
42945;BME280;28584;42.636;23.294;2023-04-22T05:50:21;161695.59;;;11.80;100.00
42945;BME280;28584;42.636;23.294;2023-04-22T05:52:46;161931.03;;;12.68;100.00
42945;BME280;28584;42.636;23.294;2023-04-22T05:55:12;162114.44;;;13.36;100.00
42945;BME280;28584;42.636;23.294;2023-04-22T05:57:37;162212.19;;;13.73;90.61
42945;BME280;28584;42.636;23.294;2023-04-22T06:00:04;162313.97;;;14.11;79.72
42945;BME280;28584;42.636;23.294;2023-04-22T06:02:29;162181.38;;;13.61;82.80
42945;BME280;28584;42.636;23.294;2023-04-22T06:04:54;162126.50;;;13.41;86.17
42945;BME280;28584;42.636;23.294;2023-04-22T06:07:20;162201.47;;;13.69;87.10
42945;BME280;28584;42.636;23.294;2023-04-22T06:09:45;162308.66;;;14.09;77.91
42945;BME280;28584;42.636;23.294;2023-04-22T06:12:10;162083.66;;;13.25;87.42
42945;BME280;28584;42.636;23.294;2023-04-22T06:14:36;162234.97;;;13.81;85.85
42945;BME280;28584;42.636;23.294;2023-04-22T06:17:02;162105.09;;;13.33;83.39
42945;BME280;28584;42.636;23.294;2023-04-22T06:19:27;162316.63;;;14.12;81.14
42945;BME280;28584;42.636;23.294;2023-04-22T06:21:53;162363.59;;;14.30;75.02
42945;BME280;28584;42.636;23.294;2023-04-22T06:24:18;162434.59;;;14.56;72.07
42945;BME280;28584;42.636;23.294;2023-04-22T06:26:43;162121.13;;;13.39;75.85
42945;BME280;28584;42.636;23.294;2023-04-22T06:29:09;161961.81;;;12.79;93.28
42945;BME280;28584;42.636;23.294;2023-04-22T06:31:34;161965.84;;;12.81;93.78
42945;BME280;28584;42.636;23.294;2023-04-22T06:33:59;162123.84;;;13.40;91.40
42945;BME280;28584;42.636;23.294;2023-04-22T06:36:25;162185.41;;;13.63;88.97
42945;BME280;28584;42.636;23.294;2023-04-22T06:38:52;162188.13;;;13.64;91.72
42945;BME280;28584;42.636;23.294;2023-04-22T06:41:17;161882.88;;;12.50;94.43
42945;BME280;28584;42.636;23.294;2023-04-22T06:43:43;162362.25;;;14.29;81.17
42945;BME280;28584;42.636;23.294;2023-04-22T06:46:08;162363.59;;;14.30;75.64
42945;BME280;28584;42.636;23.294;2023-04-22T06:48:34;162627.63;;;15.28;68.90
42945;BME280;28584;42.636;23.294;2023-04-22T06:50:59;162238.97;;;13.83;79.21
42945;BME280;28584;42.636;23.294;2023-04-22T06:53:26;162159.97;;;13.53;77.30
42945;BME280;28584;42.636;23.294;2023-04-22T06:55:51;162319.34;;;14.13;78.96
42945;BME280;28584;42.636;23.294;2023-04-22T06:58:19;162651.81;;;15.37;68.47
42945;BME280;28584;42.636;23.294;2023-04-22T07:00:44;162516.34;;;14.87;64.89
42945;BME280;28584;42.636;23.294;2023-04-22T07:03:09;162567.28;;;15.06;67.52
42945;BME280;28584;42.636;23.294;2023-04-22T07:05:35;162338.13;;;14.20;64.37
42945;BME280;28584;42.636;23.294;2023-04-22T07:08:01;162789.94;;;15.89;64.39
42945;BME280;28584;42.636;23.294;2023-04-22T07:10:26;163129.47;;;17.16;59.92
42945;BME280;28584;42.636;23.294;2023-04-22T07:12:51;162728.22;;;15.66;60.98
42945;BME280;28584;42.636;23.294;2023-04-22T07:15:17;162905.28;;;16.32;59.73
42945;BME280;28584;42.636;23.294;2023-04-22T07:17:42;163183.19;;;17.36;57.84
42945;BME280;28584;42.636;23.294;2023-04-22T07:20:08;162649.13;;;15.36;59.66
42945;BME280;28584;42.636;23.294;2023-04-22T07:22:34;162674.63;;;15.46;61.22
42945;BME280;28584;42.636;23.294;2023-04-22T07:24:59;162545.88;;;14.98;65.18
42945;BME280;28584;42.636;23.294;2023-04-22T07:27:24;162670.59;;;15.44;61.55
42945;BME280;28584;42.636;23.294;2023-04-22T07:29:50;162842.25;;;16.08;59.54
42945;BME280;28584;42.636;23.294;2023-04-22T07:32:15;162751.03;;;15.74;58.18
42945;BME280;28584;42.636;23.294;2023-04-22T07:34:40;162547.19;;;14.98;61.05
42945;BME280;28584;42.636;23.294;2023-04-22T07:37:06;162740.31;;;15.70;59.30
42945;BME280;28584;42.636;23.294;2023-04-22T07:39:33;162811.38;;;15.97;58.85
42945;BME280;28584;42.636;23.294;2023-04-22T07:41:58;162619.56;;;15.25;59.15
42945;BME280;28584;42.636;23.294;2023-04-22T07:44:24;162960.38;;;16.53;57.92
42945;BME280;28584;42.636;23.294;2023-04-22T07:46:49;162686.66;;;15.50;59.47
42945;BME280;28584;42.636;23.294;2023-04-22T07:49:15;162874.47;;;16.20;58.23
42945;BME280;28584;42.636;23.294;2023-04-22T07:51:44;162811.38;;;15.97;59.58
42945;BME280;28584;42.636;23.294;2023-04-22T07:54:09;162772.53;;;15.82;58.02
42945;BME280;28584;42.636;23.294;2023-04-22T07:56:35;163215.44;;;17.48;56.02
42945;BME280;28584;42.636;23.294;2023-04-22T07:59:00;163508.38;;;18.57;52.38
42945;BME280;28584;42.636;23.294;2023-04-22T08:01:26;163418.31;;;18.23;49.58
42945;BME280;28584;42.636;23.294;2023-04-22T08:03:51;163763.81;;;19.52;48.93
42945;BME280;28584;42.636;23.294;2023-04-22T08:06:16;163898.31;;;20.02;47.85
42945;BME280;28584;42.636;23.294;2023-04-22T08:08:42;163523.13;;;18.62;48.44
42945;BME280;28584;42.636;23.294;2023-04-22T08:11:07;163356.47;;;18.00;49.85
42945;BME280;28584;42.636;23.294;2023-04-22T08:13:32;163419.59;;;18.24;50.10
42945;BME280;28584;42.636;23.294;2023-04-22T08:15:59;163648.16;;;19.09;49.17
42945;BME280;28584;42.636;23.294;2023-04-22T08:18:27;162954.97;;;16.51;53.03
42945;BME280;28584;42.636;23.294;2023-04-22T08:20:52;162667.88;;;15.43;56.01
42945;BME280;28584;42.636;23.294;2023-04-22T08:23:17;162906.66;;;16.32;54.71
42945;BME280;28584;42.636;23.294;2023-04-22T08:25:43;163274.56;;;17.70;52.75
42945;BME280;28584;42.636;23.294;2023-04-22T08:28:08;163262.47;;;17.65;50.41
42945;BME280;28584;42.636;23.294;2023-04-22T08:30:33;163048.91;;;16.86;51.16
42945;BME280;28584;42.636;23.294;2023-04-22T08:32:59;163118.75;;;17.12;51.60
42945;BME280;28584;42.636;23.294;2023-04-22T08:35:24;162767.13;;;15.80;53.17
42945;BME280;28584;42.636;23.294;2023-04-22T08:37:49;162870.44;;;16.19;53.64
42945;BME280;28584;42.636;23.294;2023-04-22T08:40:15;162869.06;;;16.18;52.77
42945;BME280;28584;42.636;23.294;2023-04-22T08:42:40;162960.38;;;16.53;53.37
42945;BME280;28584;42.636;23.294;2023-04-22T08:45:08;162922.75;;;16.38;52.88
42945;BME280;28584;42.636;23.294;2023-04-22T08:47:36;163062.38;;;16.91;52.76
42945;BME280;28584;42.636;23.294;2023-04-22T08:50:02;162912.03;;;16.34;53.71
42945;BME280;28584;42.636;23.294;2023-04-22T08:52:31;163208.75;;;17.45;50.75
42945;BME280;28584;42.636;23.294;2023-04-22T08:54:57;163473.41;;;18.44;49.48
42945;BME280;28584;42.636;23.294;2023-04-22T08:57:23;163304.09;;;17.81;48.81
42945;BME280;28584;42.636;23.294;2023-04-22T08:59:49;163043.59;;;16.84;51.81
42945;BME280;28584;42.636;23.294;2023-04-22T09:02:19;162724.19;;;15.64;53.73
42945;BME280;28584;42.636;23.294;2023-04-22T09:04:47;162928.09;;;16.40;52.44
42945;BME280;28584;42.636;23.294;2023-04-22T09:07:19;162839.56;;;16.07;52.56
42945;BME280;28584;42.636;23.294;2023-04-22T09:09:46;163038.19;;;16.82;51.25
42945;BME280;28584;42.636;23.294;2023-04-22T09:12:12;163262.47;;;17.65;48.61
42945;BME280;28584;42.636;23.294;2023-04-22T09:14:38;163281.28;;;17.72;48.77
42945;BME280;28584;42.636;23.294;2023-04-22T09:17:03;163124.09;;;17.14;48.74
42945;BME280;28584;42.636;23.294;2023-04-22T09:19:29;163146.91;;;17.22;51.30
42945;BME280;28584;42.636;23.294;2023-04-22T09:21:57;163302.75;;;17.80;49.05
42945;BME280;28584;42.636;23.294;2023-04-22T09:24:22;163016.75;;;16.74;49.51
42945;BME280;28584;42.636;23.294;2023-04-22T09:26:48;163239.63;;;17.57;47.97
42945;BME280;28584;42.636;23.294;2023-04-22T09:29:14;162777.84;;;15.84;51.04
42945;BME280;28584;42.636;23.294;2023-04-22T09:31:40;162979.16;;;16.60;51.27
42945;BME280;28584;42.636;23.294;2023-04-22T09:34:06;163023.44;;;16.76;49.78
42945;BME280;28584;42.636;23.294;2023-04-22T09:36:31;163106.66;;;17.07;49.65
42945;BME280;28584;42.636;23.294;2023-04-22T09:39:06;163379.31;;;18.09;47.56
42945;BME280;28584;42.636;23.294;2023-04-22T09:41:38;163555.38;;;18.74;45.61
42945;BME280;28584;42.636;23.294;2023-04-22T09:44:10;163330.97;;;17.91;46.45
42945;BME280;28584;42.636;23.294;2023-04-22T09:46:36;162930.81;;;16.41;47.40
42945;BME280;28584;42.636;23.294;2023-04-22T09:49:01;162745.69;;;15.72;47.91
42945;BME280;28584;42.636;23.294;2023-04-22T09:51:28;163161.69;;;17.28;46.16
42945;BME280;28584;42.636;23.294;2023-04-22T09:53:58;162922.75;;;16.38;45.84
42945;BME280;28584;42.636;23.294;2023-04-22T09:56:50;163109.31;;;17.08;43.06
42945;BME280;28584;42.636;23.294;2023-04-22T10:01:46;162783.25;;;15.86;46.47
42945;BME280;28584;42.636;23.294;2023-04-22T10:04:11;162862.38;;;16.16;48.91
42945;BME280;28584;42.636;23.294;2023-04-22T10:06:39;163054.31;;;16.88;47.34
42945;BME280;28584;42.636;23.294;2023-04-22T10:09:05;163039.56;;;16.82;45.78
42945;BME280;28584;42.636;23.294;2023-04-22T10:11:32;162950.97;;;16.49;45.09
42945;BME280;28584;42.636;23.294;2023-04-22T10:13:58;163313.47;;;17.84;42.18
42945;BME280;28584;42.636;23.294;2023-04-22T10:16:31;163177.81;;;17.34;45.67
42945;BME280;28584;42.636;23.294;2023-04-22T10:18:59;163075.78;;;16.96;47.58
42945;BME280;28584;42.636;23.294;2023-04-22T10:21:27;162818.06;;;15.99;47.12
42945;BME280;28584;42.636;23.294;2023-04-22T10:23:54;162622.25;;;15.26;48.36
42945;BME280;28584;42.636;23.294;2023-04-22T10:26:42;162685.34;;;15.50;49.40
42945;BME280;28584;42.636;23.294;2023-04-22T10:29:12;162486.88;;;14.76;50.80
42945;BME280;28584;42.636;23.294;2023-04-22T10:31:37;162476.16;;;14.72;51.23
42945;BME280;28584;42.636;23.294;2023-04-22T10:34:14;162831.53;;;16.04;50.37
42945;BME280;28584;42.636;23.294;2023-04-22T10:36:52;162976.50;;;16.59;48.56
42945;BME280;28584;42.636;23.294;2023-04-22T10:39:17;162665.22;;;15.42;48.52
42945;BME280;28584;42.636;23.294;2023-04-22T10:42:08;162700.09;;;15.55;49.58
42945;BME280;28584;42.636;23.294;2023-04-22T10:44:49;162508.34;;;14.84;49.48
42945;BME280;28584;42.636;23.294;2023-04-22T10:52:33;162657.16;;;15.39;48.84
42945;BME280;28584;42.636;23.294;2023-04-22T10:54:59;162598.13;;;15.17;48.42
42945;BME280;28584;42.636;23.294;2023-04-22T10:57:29;162598.13;;;15.17;48.89
42945;BME280;28584;42.636;23.294;2023-04-22T11:00:01;162657.16;;;15.39;49.64
42945;BME280;28584;42.636;23.294;2023-04-22T11:02:40;162793.97;;;15.90;48.84
42945;BME280;28584;42.636;23.294;2023-04-22T11:05:19;162979.16;;;16.60;47.54
42945;BME280;28584;42.636;23.294;2023-04-22T11:07:46;163093.25;;;17.02;45.71
42945;BME280;28584;42.636;23.294;2023-04-22T11:10:30;163242.31;;;17.58;44.57
42945;BME280;28584;42.636;23.294;2023-04-22T11:12:56;163457.28;;;18.38;43.19
42945;BME280;28584;42.636;23.294;2023-04-22T11:15:21;163627.97;;;19.01;43.13
42945;BME280;28584;42.636;23.294;2023-04-22T11:17:49;163843.16;;;19.82;41.55
42945;BME280;28584;42.636;23.294;2023-04-22T11:20:15;163814.94;;;19.71;39.83
42945;BME280;28584;42.636;23.294;2023-04-22T11:22:49;163599.75;;;18.91;41.14
42945;BME280;28584;42.636;23.294;2023-04-22T11:25:15;163470.75;;;18.43;41.99
42945;BME280;28584;42.636;23.294;2023-04-22T11:27:41;163430.34;;;18.28;41.27
42945;BME280;28584;42.636;23.294;2023-04-22T11:30:21;163223.50;;;17.51;41.82
42945;BME280;28584;42.636;23.294;2023-04-22T11:32:51;162792.59;;;15.90;44.25
42945;BME280;28584;42.636;23.294;2023-04-22T11:37:55;162733.59;;;15.68;46.87
42945;BME280;28584;42.636;23.294;2023-04-22T11:40:29;162410.53;;;14.47;49.59
42945;BME280;28584;42.636;23.294;2023-04-22T11:42:56;162473.47;;;14.71;51.00
42945;BME280;28584;42.636;23.294;2023-04-22T11:45:23;162405.13;;;14.45;51.39
42945;BME280;28584;42.636;23.294;2023-04-22T11:47:50;162257.72;;;13.90;52.09
42945;BME280;28584;42.636;23.294;2023-04-22T11:50:17;162305.94;;;14.08;53.92
42945;BME280;28584;42.636;23.294;2023-04-22T11:52:48;162364.97;;;14.30;54.35
42945;BME280;28584;42.636;23.294;2023-04-22T11:55:24;162322.03;;;14.14;54.16
42945;BME280;28584;42.636;23.294;2023-04-22T11:57:58;162230.94;;;13.80;54.75
42945;BME280;28584;42.636;23.294;2023-04-22T12:00:29;162155.94;;;13.52;55.09
42945;BME280;28584;42.636;23.294;2023-04-22T12:02:58;162038.13;;;13.08;55.37
42945;BME280;28584;42.636;23.294;2023-04-22T12:05:38;162201.47;;;13.69;56.25
42945;BME280;28584;42.636;23.294;2023-04-22T12:08:18;162114.44;;;13.36;56.32
42945;BME280;28584;42.636;23.294;2023-04-22T12:10:50;161992.56;;;12.91;57.12
42945;BME280;28584;42.636;23.294;2023-04-22T12:13:21;162019.38;;;13.01;57.77
42945;BME280;28584;42.636;23.294;2023-04-22T12:15:47;162046.16;;;13.11;58.70
42945;BME280;28584;42.636;23.294;2023-04-22T12:18:12;162119.81;;;13.38;57.21
42945;BME280;28584;42.636;23.294;2023-04-22T12:20:39;161959.13;;;12.78;59.35
42945;BME280;28584;42.636;23.294;2023-04-22T12:23:11;162016.72;;;13.00;58.70
42945;BME280;28584;42.636;23.294;2023-04-22T12:25:37;162169.38;;;13.57;57.93
42945;BME280;28584;42.636;23.294;2023-04-22T12:28:03;162303.28;;;14.07;57.37
42945;BME280;28584;42.636;23.294;2023-04-22T12:30:28;162236.31;;;13.82;57.70
42945;BME280;28584;42.636;23.294;2023-04-22T12:32:54;162068.94;;;13.19;58.60
42945;BME280;28584;42.636;23.294;2023-04-22T12:35:20;162044.88;;;13.10;58.59
42945;BME280;28584;42.636;23.294;2023-04-22T12:37:45;161976.53;;;12.85;59.39
42945;BME280;28584;42.636;23.294;2023-04-22T12:40:11;162036.81;;;13.07;59.39
42945;BME280;28584;42.636;23.294;2023-04-22T12:42:36;162287.19;;;14.01;57.17
42945;BME280;28584;42.636;23.294;2023-04-22T12:45:03;162343.50;;;14.22;56.63
42945;BME280;28584;42.636;23.294;2023-04-22T12:47:29;162285.88;;;14.01;56.69